デンパサール の空港の天気 - METARとTAF

デンパサール国際空港 ( WADD / DPS ) - インドネシア バリ島デンパサール
飛行場実況気象(Metar)
観測時間01/22 01:00 WITA (01/21 17:00 UTC)
風向・風速西北西 8m/s
視程7000m
天気現象弱い雨
全天の4割程度の雲 雲底高度 400m
気温26℃
湿度94%
気圧1008hPa
METARWADD 211700Z 29016KT 7000 -RA SCT013 26/25 Q1008 NOSIG
過去の天気等 Google飛行場航空写真 Wunderground天気予報

過去48時間のMETAR

飛行場予報(TAF)
発表時間: 1/21 19:00 WITA (1/21 11:00 UTC)
予報対象時間: 21日20時 WITA ~ 22日20時 WITA
風向・風速西 5m/s
視程5000m
天気現象
全天の8割程度の雲 雲底高度 300m
少しの積乱雲 雲底高度 460m
22日10時 WITA ~ 22日14時 WITA に一時的に
視程10km以上
全天の4割程度の雲 雲底高度 520m
TAF WADD 211100Z 2112/2212 28010KT 5000 RA BKN010 FEW015CB
TEMPO 2202/2206 9999 SCT017